sensor_id;sensor_type;location;lat;lon;timestamp;temperature;humidity
44855;DHT22;30591;48.228;16.398;2023-03-18T00:00:33;4.90;68.60
44855;DHT22;30591;48.228;16.398;2023-03-18T00:03:01;5.00;68.00
44855;DHT22;30591;48.228;16.398;2023-03-18T00:05:29;5.00;67.20
44855;DHT22;30591;48.228;16.398;2023-03-18T00:07:57;5.10;66.80
44855;DHT22;30591;48.228;16.398;2023-03-18T00:10:25;5.00;67.40
44855;DHT22;30591;48.228;16.398;2023-03-18T00:12:52;5.00;67.50
44855;DHT22;30591;48.228;16.398;2023-03-18T00:15:20;5.00;68.10
44855;DHT22;30591;48.228;16.398;2023-03-18T00:17:47;5.10;67.00
44855;DHT22;30591;48.228;16.398;2023-03-18T00:20:16;5.00;67.20
44855;DHT22;30591;48.228;16.398;2023-03-18T00:22:44;5.00;67.50
44855;DHT22;30591;48.228;16.398;2023-03-18T00:25:13;4.90;67.60
44855;DHT22;30591;48.228;16.398;2023-03-18T00:27:42;4.80;68.40
44855;DHT22;30591;48.228;16.398;2023-03-18T00:30:10;4.70;68.90
44855;DHT22;30591;48.228;16.398;2023-03-18T00:32:39;4.80;68.50
44855;DHT22;30591;48.228;16.398;2023-03-18T00:35:08;4.80;69.00
44855;DHT22;30591;48.228;16.398;2023-03-18T00:37:35;4.70;69.20
44855;DHT22;30591;48.228;16.398;2023-03-18T00:40:06;4.70;69.00
44855;DHT22;30591;48.228;16.398;2023-03-18T00:42:37;4.70;69.30
44855;DHT22;30591;48.228;16.398;2023-03-18T00:45:08;4.70;69.30
44855;DHT22;30591;48.228;16.398;2023-03-18T00:47:37;4.60;69.80
44855;DHT22;30591;48.228;16.398;2023-03-18T00:50:08;4.60;69.10
44855;DHT22;30591;48.228;16.398;2023-03-18T00:52:36;4.60;69.90
44855;DHT22;30591;48.228;16.398;2023-03-18T00:55:05;4.70;69.30
44855;DHT22;30591;48.228;16.398;2023-03-18T00:57:34;4.70;69.30
44855;DHT22;30591;48.228;16.398;2023-03-18T01:00:03;4.70;69.50
44855;DHT22;30591;48.228;16.398;2023-03-18T01:02:33;4.80;68.50
44855;DHT22;30591;48.228;16.398;2023-03-18T01:05:02;4.70;69.20
44855;DHT22;30591;48.228;16.398;2023-03-18T01:07:29;4.70;68.70
44855;DHT22;30591;48.228;16.398;2023-03-18T01:09:57;4.70;68.40
44855;DHT22;30591;48.228;16.398;2023-03-18T01:12:24;4.70;68.40
44855;DHT22;30591;48.228;16.398;2023-03-18T01:14:51;4.80;68.40
44855;DHT22;30591;48.228;16.398;2023-03-18T01:17:19;4.80;68.70
44855;DHT22;30591;48.228;16.398;2023-03-18T01:19:46;4.80;68.10
44855;DHT22;30591;48.228;16.398;2023-03-18T01:22:16;4.60;69.20
44855;DHT22;30591;48.228;16.398;2023-03-18T01:24:48;4.70;68.30
44855;DHT22;30591;48.228;16.398;2023-03-18T01:27:18;4.60;69.00
44855;DHT22;30591;48.228;16.398;2023-03-18T01:29:46;4.70;68.90
44855;DHT22;30591;48.228;16.398;2023-03-18T01:32:19;4.60;69.10
44855;DHT22;30591;48.228;16.398;2023-03-18T01:34:48;4.50;69.20
44855;DHT22;30591;48.228;16.398;2023-03-18T01:37:15;4.50;69.40
44855;DHT22;30591;48.228;16.398;2023-03-18T01:39:46;4.50;70.80
44855;DHT22;30591;48.228;16.398;2023-03-18T01:42:19;4.40;69.90
44855;DHT22;30591;48.228;16.398;2023-03-18T01:44:48;4.40;71.00
44855;DHT22;30591;48.228;16.398;2023-03-18T01:47:17;4.30;70.80
44855;DHT22;30591;48.228;16.398;2023-03-18T01:49:52;4.20;71.00
44855;DHT22;30591;48.228;16.398;2023-03-18T01:52:22;4.20;71.10
44855;DHT22;30591;48.228;16.398;2023-03-18T01:55:00;4.20;71.20
44855;DHT22;30591;48.228;16.398;2023-03-18T01:57:31;4.10;72.30
44855;DHT22;30591;48.228;16.398;2023-03-18T02:00:00;4.10;71.10
44855;DHT22;30591;48.228;16.398;2023-03-18T02:02:28;4.20;71.00
44855;DHT22;30591;48.228;16.398;2023-03-18T02:05:01;4.10;71.10
44855;DHT22;30591;48.228;16.398;2023-03-18T02:07:32;4.10;71.10
44855;DHT22;30591;48.228;16.398;2023-03-18T02:10:11;4.00;71.80
44855;DHT22;30591;48.228;16.398;2023-03-18T02:12:42;4.00;71.80
44855;DHT22;30591;48.228;16.398;2023-03-18T02:15:17;4.00;71.80
44855;DHT22;30591;48.228;16.398;2023-03-18T02:18:02;4.00;71.90
44855;DHT22;30591;48.228;16.398;2023-03-18T02:20:56;4.00;72.30
44855;DHT22;30591;48.228;16.398;2023-03-18T02:23:45;3.90;72.20
44855;DHT22;30591;48.228;16.398;2023-03-18T02:26:23;3.80;72.40
44855;DHT22;30591;48.228;16.398;2023-03-18T02:28:55;3.80;72.40
44855;DHT22;30591;48.228;16.398;2023-03-18T02:31:26;3.80;72.40
44855;DHT22;30591;48.228;16.398;2023-03-18T02:33:55;3.80;72.40
44855;DHT22;30591;48.228;16.398;2023-03-18T02:36:27;3.80;72.60
44855;DHT22;30591;48.228;16.398;2023-03-18T02:38:57;3.80;73.20
44855;DHT22;30591;48.228;16.398;2023-03-18T02:41:29;3.80;73.40
44855;DHT22;30591;48.228;16.398;2023-03-18T02:43:59;3.70;73.10
44855;DHT22;30591;48.228;16.398;2023-03-18T02:47:10;3.70;73.00
44855;DHT22;30591;48.228;16.398;2023-03-18T02:49:39;3.80;73.50
44855;DHT22;30591;48.228;16.398;2023-03-18T02:52:08;3.70;73.60
44855;DHT22;30591;48.228;16.398;2023-03-18T02:54:35;3.70;73.70
44855;DHT22;30591;48.228;16.398;2023-03-18T02:57:03;3.60;73.90
44855;DHT22;30591;48.228;16.398;2023-03-18T02:59:31;3.60;74.00
44855;DHT22;30591;48.228;16.398;2023-03-18T03:02:00;3.60;74.40
44855;DHT22;30591;48.228;16.398;2023-03-18T03:04:28;3.60;73.90
44855;DHT22;30591;48.228;16.398;2023-03-18T03:06:56;3.70;73.70
44855;DHT22;30591;48.228;16.398;2023-03-18T03:09:35;3.60;74.10
44855;DHT22;30591;48.228;16.398;2023-03-18T03:12:04;3.50;74.60
44855;DHT22;30591;48.228;16.398;2023-03-18T03:14:38;3.50;74.20
44855;DHT22;30591;48.228;16.398;2023-03-18T03:17:06;3.50;74.90
44855;DHT22;30591;48.228;16.398;2023-03-18T03:19:33;3.50;74.40
44855;DHT22;30591;48.228;16.398;2023-03-18T03:22:01;3.50;74.30
44855;DHT22;30591;48.228;16.398;2023-03-18T03:24:30;3.40;74.70
44855;DHT22;30591;48.228;16.398;2023-03-18T03:26:58;3.40;74.70
44855;DHT22;30591;48.228;16.398;2023-03-18T03:29:26;3.30;75.30
44855;DHT22;30591;48.228;16.398;2023-03-18T03:31:53;3.30;75.70
44855;DHT22;30591;48.228;16.398;2023-03-18T03:34:20;3.30;75.40
44855;DHT22;30591;48.228;16.398;2023-03-18T03:36:47;3.30;75.10
44855;DHT22;30591;48.228;16.398;2023-03-18T03:39:15;3.20;75.10
44855;DHT22;30591;48.228;16.398;2023-03-18T03:41:42;3.30;75.60
44855;DHT22;30591;48.228;16.398;2023-03-18T03:44:10;3.20;75.70
44855;DHT22;30591;48.228;16.398;2023-03-18T03:46:38;3.10;75.60
44855;DHT22;30591;48.228;16.398;2023-03-18T03:49:05;3.10;76.30
44855;DHT22;30591;48.228;16.398;2023-03-18T03:51:32;3.00;76.60
44855;DHT22;30591;48.228;16.398;2023-03-18T03:54:00;3.00;76.40
44855;DHT22;30591;48.228;16.398;2023-03-18T03:56:28;2.90;76.80
44855;DHT22;30591;48.228;16.398;2023-03-18T03:58:57;2.90;76.70
44855;DHT22;30591;48.228;16.398;2023-03-18T04:01:40;2.80;76.80
44855;DHT22;30591;48.228;16.398;2023-03-18T04:04:07;2.80;77.30
44855;DHT22;30591;48.228;16.398;2023-03-18T04:06:34;2.80;77.30
44855;DHT22;30591;48.228;16.398;2023-03-18T04:09:03;2.80;77.40
44855;DHT22;30591;48.228;16.398;2023-03-18T04:11:32;2.70;77.60
44855;DHT22;30591;48.228;16.398;2023-03-18T04:13:59;2.70;77.30
44855;DHT22;30591;48.228;16.398;2023-03-18T04:16:26;2.70;77.40
44855;DHT22;30591;48.228;16.398;2023-03-18T04:18:55;2.60;78.10
44855;DHT22;30591;48.228;16.398;2023-03-18T04:21:23;2.70;77.50
44855;DHT22;30591;48.228;16.398;2023-03-18T04:23:53;2.70;77.60
44855;DHT22;30591;48.228;16.398;2023-03-18T04:26:20;2.70;77.80
44855;DHT22;30591;48.228;16.398;2023-03-18T04:28:49;2.60;78.20
44855;DHT22;30591;48.228;16.398;2023-03-18T04:31:18;2.60;78.10
44855;DHT22;30591;48.228;16.398;2023-03-18T04:33:45;2.50;78.50
44855;DHT22;30591;48.228;16.398;2023-03-18T04:36:14;2.50;78.70
44855;DHT22;30591;48.228;16.398;2023-03-18T04:38:42;2.40;79.90
44855;DHT22;30591;48.228;16.398;2023-03-18T04:41:10;2.40;80.30
44855;DHT22;30591;48.228;16.398;2023-03-18T04:43:38;2.30;80.30
44855;DHT22;30591;48.228;16.398;2023-03-18T04:46:07;2.30;80.40
44855;DHT22;30591;48.228;16.398;2023-03-18T04:48:36;2.40;80.00
44855;DHT22;30591;48.228;16.398;2023-03-18T04:51:06;2.40;80.20
44855;DHT22;30591;48.228;16.398;2023-03-18T04:53:36;2.30;80.70
44855;DHT22;30591;48.228;16.398;2023-03-18T04:56:04;2.30;80.70
44855;DHT22;30591;48.228;16.398;2023-03-18T04:58:46;2.20;81.20
44855;DHT22;30591;48.228;16.398;2023-03-18T05:01:18;2.10;81.30
44855;DHT22;30591;48.228;16.398;2023-03-18T05:03:47;2.00;82.00
44855;DHT22;30591;48.228;16.398;2023-03-18T05:06:28;2.00;82.30
44855;DHT22;30591;48.228;16.398;2023-03-18T05:09:02;1.90;82.90
44855;DHT22;30591;48.228;16.398;2023-03-18T05:11:33;1.90;83.20
44855;DHT22;30591;48.228;16.398;2023-03-18T05:14:21;1.90;82.70
44855;DHT22;30591;48.228;16.398;2023-03-18T05:16:49;2.00;82.80
44855;DHT22;30591;48.228;16.398;2023-03-18T05:19:16;2.00;83.00
44855;DHT22;30591;48.228;16.398;2023-03-18T05:22:00;2.00;83.30
44855;DHT22;30591;48.228;16.398;2023-03-18T05:24:29;2.10;83.30
44855;DHT22;30591;48.228;16.398;2023-03-18T05:26:56;2.20;84.10
44855;DHT22;30591;48.228;16.398;2023-03-18T05:29:30;2.30;82.90
44855;DHT22;30591;48.228;16.398;2023-03-18T05:32:17;2.30;82.00
44855;DHT22;30591;48.228;16.398;2023-03-18T05:34:51;2.40;83.10
44855;DHT22;30591;48.228;16.398;2023-03-18T05:37:19;2.40;82.40
44855;DHT22;30591;48.228;16.398;2023-03-18T05:39:56;2.60;82.10
44855;DHT22;30591;48.228;16.398;2023-03-18T05:42:24;2.60;82.50
44855;DHT22;30591;48.228;16.398;2023-03-18T05:44:52;2.60;82.30
44855;DHT22;30591;48.228;16.398;2023-03-18T05:47:22;2.70;82.40
44855;DHT22;30591;48.228;16.398;2023-03-18T05:50:10;2.80;82.40
44855;DHT22;30591;48.228;16.398;2023-03-18T05:52:38;2.80;83.10
44855;DHT22;30591;48.228;16.398;2023-03-18T05:55:12;2.90;82.00
44855;DHT22;30591;48.228;16.398;2023-03-18T05:57:43;3.00;82.10
44855;DHT22;30591;48.228;16.398;2023-03-18T06:00:11;3.10;82.30
44855;DHT22;30591;48.228;16.398;2023-03-18T06:02:43;3.20;82.00
44855;DHT22;30591;48.228;16.398;2023-03-18T06:05:13;3.30;81.70
44855;DHT22;30591;48.228;16.398;2023-03-18T06:07:41;3.40;81.20
44855;DHT22;30591;48.228;16.398;2023-03-18T06:10:10;3.50;81.50
44855;DHT22;30591;48.228;16.398;2023-03-18T06:12:39;3.60;79.70
44855;DHT22;30591;48.228;16.398;2023-03-18T06:15:09;3.70;80.60
44855;DHT22;30591;48.228;16.398;2023-03-18T06:17:38;3.80;80.50
44855;DHT22;30591;48.228;16.398;2023-03-18T06:20:08;3.90;79.40
44855;DHT22;30591;48.228;16.398;2023-03-18T06:22:38;4.10;77.90
44855;DHT22;30591;48.228;16.398;2023-03-18T06:25:06;4.20;77.60
44855;DHT22;30591;48.228;16.398;2023-03-18T06:27:37;4.30;77.20
44855;DHT22;30591;48.228;16.398;2023-03-18T06:30:05;4.40;77.30
44855;DHT22;30591;48.228;16.398;2023-03-18T06:32:35;4.40;77.40
44855;DHT22;30591;48.228;16.398;2023-03-18T06:35:03;4.50;76.30
44855;DHT22;30591;48.228;16.398;2023-03-18T06:37:31;4.50;77.40
44855;DHT22;30591;48.228;16.398;2023-03-18T06:39:59;4.60;76.40
44855;DHT22;30591;48.228;16.398;2023-03-18T06:42:26;4.80;76.00
44855;DHT22;30591;48.228;16.398;2023-03-18T06:45:00;4.90;76.90
44855;DHT22;30591;48.228;16.398;2023-03-18T06:47:43;4.90;75.30
44855;DHT22;30591;48.228;16.398;2023-03-18T06:50:12;5.00;76.20
44855;DHT22;30591;48.228;16.398;2023-03-18T06:52:40;4.90;76.50
44855;DHT22;30591;48.228;16.398;2023-03-18T06:55:11;4.80;76.10
44855;DHT22;30591;48.228;16.398;2023-03-18T06:57:42;4.90;76.50
44855;DHT22;30591;48.228;16.398;2023-03-18T07:00:11;4.90;76.10
44855;DHT22;30591;48.228;16.398;2023-03-18T07:02:39;4.90;76.10
44855;DHT22;30591;48.228;16.398;2023-03-18T07:05:10;5.00;76.90
44855;DHT22;30591;48.228;16.398;2023-03-18T07:07:40;5.00;75.70
44855;DHT22;30591;48.228;16.398;2023-03-18T07:10:15;4.90;75.40
44855;DHT22;30591;48.228;16.398;2023-03-18T07:12:44;4.80;75.20
44855;DHT22;30591;48.228;16.398;2023-03-18T07:15:11;4.90;75.70
44855;DHT22;30591;48.228;16.398;2023-03-18T07:17:39;5.00;76.30
44855;DHT22;30591;48.228;16.398;2023-03-18T07:20:07;5.10;76.40
44855;DHT22;30591;48.228;16.398;2023-03-18T07:22:36;5.10;75.20
44855;DHT22;30591;48.228;16.398;2023-03-18T07:25:04;5.30;75.80
44855;DHT22;30591;48.228;16.398;2023-03-18T07:27:31;5.50;75.70
44855;DHT22;30591;48.228;16.398;2023-03-18T07:30:00;5.70;75.00
44855;DHT22;30591;48.228;16.398;2023-03-18T07:32:28;5.90;75.70
44855;DHT22;30591;48.228;16.398;2023-03-18T07:34:58;6.30;74.70
44855;DHT22;30591;48.228;16.398;2023-03-18T07:37:25;6.40;72.00
44855;DHT22;30591;48.228;16.398;2023-03-18T07:39:53;6.60;73.40
44855;DHT22;30591;48.228;16.398;2023-03-18T07:42:21;6.70;73.00
44855;DHT22;30591;48.228;16.398;2023-03-18T07:44:49;7.00;72.90
44855;DHT22;30591;48.228;16.398;2023-03-18T07:47:17;7.10;72.70
44855;DHT22;30591;48.228;16.398;2023-03-18T07:49:46;7.30;70.90
44855;DHT22;30591;48.228;16.398;2023-03-18T07:52:14;7.10;71.10
44855;DHT22;30591;48.228;16.398;2023-03-18T07:54:41;7.10;71.20
44855;DHT22;30591;48.228;16.398;2023-03-18T07:57:09;7.30;71.90
44855;DHT22;30591;48.228;16.398;2023-03-18T07:59:37;7.20;72.00
44855;DHT22;30591;48.228;16.398;2023-03-18T08:02:05;7.40;71.00
44855;DHT22;30591;48.228;16.398;2023-03-18T08:04:34;7.40;71.80
44855;DHT22;30591;48.228;16.398;2023-03-18T08:07:02;7.40;70.90
44855;DHT22;30591;48.228;16.398;2023-03-18T08:09:29;7.50;70.60
44855;DHT22;30591;48.228;16.398;2023-03-18T08:11:56;7.60;71.20
44855;DHT22;30591;48.228;16.398;2023-03-18T08:14:24;7.70;70.60
44855;DHT22;30591;48.228;16.398;2023-03-18T08:16:51;7.90;71.60
44855;DHT22;30591;48.228;16.398;2023-03-18T08:19:19;7.80;71.50
44855;DHT22;30591;48.228;16.398;2023-03-18T08:21:47;7.80;70.20
44855;DHT22;30591;48.228;16.398;2023-03-18T08:24:15;7.90;71.40
44855;DHT22;30591;48.228;16.398;2023-03-18T08:26:43;8.20;70.20
44855;DHT22;30591;48.228;16.398;2023-03-18T08:29:11;8.20;71.30
44855;DHT22;30591;48.228;16.398;2023-03-18T08:31:38;8.30;70.80
44855;DHT22;30591;48.228;16.398;2023-03-18T08:34:05;8.50;70.60
44855;DHT22;30591;48.228;16.398;2023-03-18T08:36:33;8.60;69.40
44855;DHT22;30591;48.228;16.398;2023-03-18T08:39:01;8.60;69.10
44855;DHT22;30591;48.228;16.398;2023-03-18T08:41:29;8.70;67.10
44855;DHT22;30591;48.228;16.398;2023-03-18T08:43:56;8.90;67.10
44855;DHT22;30591;48.228;16.398;2023-03-18T08:46:23;9.20;68.30
44855;DHT22;30591;48.228;16.398;2023-03-18T08:48:51;9.20;65.50
44855;DHT22;30591;48.228;16.398;2023-03-18T08:51:20;9.10;64.90
44855;DHT22;30591;48.228;16.398;2023-03-18T08:53:49;9.10;65.90
44855;DHT22;30591;48.228;16.398;2023-03-18T08:56:16;9.40;65.60
44855;DHT22;30591;48.228;16.398;2023-03-18T08:58:44;9.80;67.10
44855;DHT22;30591;48.228;16.398;2023-03-18T09:01:12;9.90;65.20
44855;DHT22;30591;48.228;16.398;2023-03-18T09:03:39;9.80;66.80
44855;DHT22;30591;48.228;16.398;2023-03-18T09:06:07;10.10;65.70
44855;DHT22;30591;48.228;16.398;2023-03-18T09:08:34;10.00;62.00
44855;DHT22;30591;48.228;16.398;2023-03-18T09:11:01;9.70;64.00
44855;DHT22;30591;48.228;16.398;2023-03-18T09:13:29;9.60;65.00
44855;DHT22;30591;48.228;16.398;2023-03-18T09:15:56;9.80;66.00
44855;DHT22;30591;48.228;16.398;2023-03-18T09:18:24;10.20;65.70
44855;DHT22;30591;48.228;16.398;2023-03-18T09:20:51;9.80;64.50
44855;DHT22;30591;48.228;16.398;2023-03-18T09:23:19;9.60;66.50
44855;DHT22;30591;48.228;16.398;2023-03-18T09:25:47;9.50;67.60
44855;DHT22;30591;48.228;16.398;2023-03-18T09:28:16;9.70;65.60
44855;DHT22;30591;48.228;16.398;2023-03-18T09:30:43;9.70;63.80
44855;DHT22;30591;48.228;16.398;2023-03-18T09:33:11;9.70;65.10
44855;DHT22;30591;48.228;16.398;2023-03-18T09:35:40;9.70;64.30
44855;DHT22;30591;48.228;16.398;2023-03-18T09:38:16;10.00;63.00
44855;DHT22;30591;48.228;16.398;2023-03-18T09:43:43;10.20;64.10
44855;DHT22;30591;48.228;16.398;2023-03-18T09:51:58;10.70;62.80
44855;DHT22;30591;48.228;16.398;2023-03-18T09:54:44;11.00;61.60
44855;DHT22;30591;48.228;16.398;2023-03-18T09:57:21;11.00;64.10
44855;DHT22;30591;48.228;16.398;2023-03-18T09:59:52;11.00;63.50
44855;DHT22;30591;48.228;16.398;2023-03-18T10:02:32;11.20;62.80
44855;DHT22;30591;48.228;16.398;2023-03-18T10:05:09;11.40;60.20
44855;DHT22;30591;48.228;16.398;2023-03-18T10:07:40;11.30;62.80
44855;DHT22;30591;48.228;16.398;2023-03-18T10:10:21;11.60;62.30
44855;DHT22;30591;48.228;16.398;2023-03-18T10:13:05;11.60;61.20
44855;DHT22;30591;48.228;16.398;2023-03-18T10:15:40;11.80;61.40
44855;DHT22;30591;48.228;16.398;2023-03-18T10:18:23;11.50;59.60
44855;DHT22;30591;48.228;16.398;2023-03-18T10:26:47;11.50;58.40
44855;DHT22;30591;48.228;16.398;2023-03-18T10:29:43;11.70;60.50
44855;DHT22;30591;48.228;16.398;2023-03-18T10:35:41;12.00;61.20
44855;DHT22;30591;48.228;16.398;2023-03-18T10:38:16;12.60;63.20
44855;DHT22;30591;48.228;16.398;2023-03-18T10:40:45;12.30;58.40
44855;DHT22;30591;48.228;16.398;2023-03-18T10:43:20;12.60;61.70
44855;DHT22;30591;48.228;16.398;2023-03-18T10:45:56;13.00;59.80
44855;DHT22;30591;48.228;16.398;2023-03-18T10:56:22;13.20;62.80
44855;DHT22;30591;48.228;16.398;2023-03-18T10:58:50;13.40;60.50
44855;DHT22;30591;48.228;16.398;2023-03-18T11:01:20;13.50;57.50
44855;DHT22;30591;48.228;16.398;2023-03-18T11:04:04;12.90;56.90
44855;DHT22;30591;48.228;16.398;2023-03-18T11:06:54;13.10;57.80
44855;DHT22;30591;48.228;16.398;2023-03-18T11:09:36;13.40;58.80
44855;DHT22;30591;48.228;16.398;2023-03-18T11:12:16;13.50;58.40
44855;DHT22;30591;48.228;16.398;2023-03-18T11:14:49;13.60;58.40
44855;DHT22;30591;48.228;16.398;2023-03-18T11:17:20;14.00;57.20
44855;DHT22;30591;48.228;16.398;2023-03-18T11:20:03;14.30;57.80
44855;DHT22;30591;48.228;16.398;2023-03-18T11:22:35;14.30;57.30
44855;DHT22;30591;48.228;16.398;2023-03-18T11:25:18;14.30;56.50
44855;DHT22;30591;48.228;16.398;2023-03-18T11:27:52;14.10;57.30
44855;DHT22;30591;48.228;16.398;2023-03-18T11:30:28;14.50;58.90
44855;DHT22;30591;48.228;16.398;2023-03-18T11:35:44;17.10;51.40
44855;DHT22;30591;48.228;16.398;2023-03-18T11:38:28;16.90;51.10
44855;DHT22;30591;48.228;16.398;2023-03-18T11:41:14;18.90;51.40
44855;DHT22;30591;48.228;16.398;2023-03-18T11:44:10;18.60;50.10
44855;DHT22;30591;48.228;16.398;2023-03-18T11:46:49;20.10;51.30
44855;DHT22;30591;48.228;16.398;2023-03-18T11:49:22;19.60;47.30
44855;DHT22;30591;48.228;16.398;2023-03-18T11:54:48;18.70;49.70
44855;DHT22;30591;48.228;16.398;2023-03-18T12:03:22;18.20;49.10
44855;DHT22;30591;48.228;16.398;2023-03-18T12:11:49;18.90;49.10
44855;DHT22;30591;48.228;16.398;2023-03-18T12:14:59;19.80;49.20
44855;DHT22;30591;48.228;16.398;2023-03-18T12:17:52;20.10;47.20
44855;DHT22;30591;48.228;16.398;2023-03-18T12:20:41;22.30;48.20
44855;DHT22;30591;48.228;16.398;2023-03-18T12:25:57;20.90;49.60
44855;DHT22;30591;48.228;16.398;2023-03-18T12:33:56;18.40;48.80
44855;DHT22;30591;48.228;16.398;2023-03-18T12:49:49;21.90;46.40
44855;DHT22;30591;48.228;16.398;2023-03-18T12:53:07;21.60;46.90
44855;DHT22;30591;48.228;16.398;2023-03-18T12:55:31;21.80;47.50
44855;DHT22;30591;48.228;16.398;2023-03-18T12:58:06;22.00;45.10
44855;DHT22;30591;48.228;16.398;2023-03-18T13:03:38;22.60;45.60
44855;DHT22;30591;48.228;16.398;2023-03-18T13:06:08;21.60;46.60
44855;DHT22;30591;48.228;16.398;2023-03-18T13:14:18;22.00;47.00
44855;DHT22;30591;48.228;16.398;2023-03-18T13:16:49;21.90;45.40
44855;DHT22;30591;48.228;16.398;2023-03-18T13:19:18;20.80;45.10
44855;DHT22;30591;48.228;16.398;2023-03-18T13:30:30;21.90;44.00
44855;DHT22;30591;48.228;16.398;2023-03-18T13:39:22;20.00;46.80
44855;DHT22;30591;48.228;16.398;2023-03-18T13:47:28;20.60;43.80
44855;DHT22;30591;48.228;16.398;2023-03-18T13:50:03;21.00;45.30
44855;DHT22;30591;48.228;16.398;2023-03-18T13:52:39;21.30;44.00
44855;DHT22;30591;48.228;16.398;2023-03-18T14:03:26;19.50;44.10
44855;DHT22;30591;48.228;16.398;2023-03-18T14:13:56;15.60;49.20
44855;DHT22;30591;48.228;16.398;2023-03-18T14:19:20;15.50;52.60
44855;DHT22;30591;48.228;16.398;2023-03-18T14:22:05;15.90;50.60
44855;DHT22;30591;48.228;16.398;2023-03-18T14:24:33;17.50;46.00
44855;DHT22;30591;48.228;16.398;2023-03-18T14:29:37;16.00;49.00
44855;DHT22;30591;48.228;16.398;2023-03-18T14:32:29;15.00;51.60
44855;DHT22;30591;48.228;16.398;2023-03-18T14:35:24;14.80;52.00
44855;DHT22;30591;48.228;16.398;2023-03-18T14:40:52;14.80;51.60
44855;DHT22;30591;48.228;16.398;2023-03-18T14:43:28;14.90;50.70
44855;DHT22;30591;48.228;16.398;2023-03-18T14:45:58;14.50;52.60
44855;DHT22;30591;48.228;16.398;2023-03-18T14:48:30;14.40;51.30
44855;DHT22;30591;48.228;16.398;2023-03-18T14:51:05;14.30;51.00
44855;DHT22;30591;48.228;16.398;2023-03-18T14:53:53;14.30;51.70
44855;DHT22;30591;48.228;16.398;2023-03-18T14:56:27;14.10;52.70
44855;DHT22;30591;48.228;16.398;2023-03-18T14:58:55;14.00;53.60
44855;DHT22;30591;48.228;16.398;2023-03-18T15:01:29;14.00;51.40
44855;DHT22;30591;48.228;16.398;2023-03-18T15:04:00;14.00;53.90
44855;DHT22;30591;48.228;16.398;2023-03-18T15:06:29;14.10;52.90
44855;DHT22;30591;48.228;16.398;2023-03-18T15:09:07;14.10;53.20
44855;DHT22;30591;48.228;16.398;2023-03-18T15:11:42;14.00;52.40
44855;DHT22;30591;48.228;16.398;2023-03-18T15:14:24;13.90;52.90
44855;DHT22;30591;48.228;16.398;2023-03-18T15:16:58;13.90;52.10
44855;DHT22;30591;48.228;16.398;2023-03-18T15:19:30;13.80;52.50
44855;DHT22;30591;48.228;16.398;2023-03-18T15:22:01;13.90;52.70
44855;DHT22;30591;48.228;16.398;2023-03-18T15:24:32;13.90;51.50
44855;DHT22;30591;48.228;16.398;2023-03-18T15:27:05;13.70;52.90
44855;DHT22;30591;48.228;16.398;2023-03-18T15:30:04;13.70;52.60
44855;DHT22;30591;48.228;16.398;2023-03-18T15:32:43;13.70;52.10
44855;DHT22;30591;48.228;16.398;2023-03-18T15:35:23;13.60;53.20
44855;DHT22;30591;48.228;16.398;2023-03-18T15:38:14;13.60;54.10
44855;DHT22;30591;48.228;16.398;2023-03-18T15:40:54;13.40;52.90
44855;DHT22;30591;48.228;16.398;2023-03-18T15:43:28;13.30;53.30
44855;DHT22;30591;48.228;16.398;2023-03-18T15:45:59;13.30;53.40
44855;DHT22;30591;48.228;16.398;2023-03-18T15:48:33;13.20;52.80
44855;DHT22;30591;48.228;16.398;2023-03-18T15:51:06;13.00;53.70
44855;DHT22;30591;48.228;16.398;2023-03-18T15:53:44;12.90;55.60
44855;DHT22;30591;48.228;16.398;2023-03-18T15:56:29;12.80;54.30
44855;DHT22;30591;48.228;16.398;2023-03-18T15:59:13;12.70;55.50
44855;DHT22;30591;48.228;16.398;2023-03-18T16:01:41;12.60;54.60
44855;DHT22;30591;48.228;16.398;2023-03-18T16:04:14;12.60;54.60
44855;DHT22;30591;48.228;16.398;2023-03-18T16:06:43;12.50;54.00
44855;DHT22;30591;48.228;16.398;2023-03-18T16:09:31;12.40;55.70
44855;DHT22;30591;48.228;16.398;2023-03-18T16:12:12;12.30;56.10
44855;DHT22;30591;48.228;16.398;2023-03-18T16:14:44;12.20;56.30
44855;DHT22;30591;48.228;16.398;2023-03-18T16:17:14;12.20;56.70
44855;DHT22;30591;48.228;16.398;2023-03-18T16:19:45;12.10;55.90
44855;DHT22;30591;48.228;16.398;2023-03-18T16:22:14;12.10;57.00
44855;DHT22;30591;48.228;16.398;2023-03-18T16:24:41;12.00;57.50
44855;DHT22;30591;48.228;16.398;2023-03-18T16:29:54;11.80;57.80
44855;DHT22;30591;48.228;16.398;2023-03-18T16:32:21;12.00;56.10
44855;DHT22;30591;48.228;16.398;2023-03-18T16:34:49;11.90;56.40
44855;DHT22;30591;48.228;16.398;2023-03-18T16:37:23;11.90;56.40
44855;DHT22;30591;48.228;16.398;2023-03-18T16:39:53;11.90;56.40
44855;DHT22;30591;48.228;16.398;2023-03-18T16:42:23;11.90;56.10
44855;DHT22;30591;48.228;16.398;2023-03-18T16:44:51;11.80;56.40
44855;DHT22;30591;48.228;16.398;2023-03-18T16:47:22;11.60;56.70
44855;DHT22;30591;48.228;16.398;2023-03-18T16:49:51;11.50;56.60
44855;DHT22;30591;48.228;16.398;2023-03-18T16:52:18;11.50;56.20
44855;DHT22;30591;48.228;16.398;2023-03-18T16:54:46;11.40;57.10
44855;DHT22;30591;48.228;16.398;2023-03-18T16:57:18;11.50;55.40
44855;DHT22;30591;48.228;16.398;2023-03-18T16:59:51;11.50;55.90
44855;DHT22;30591;48.228;16.398;2023-03-18T17:02:39;11.30;56.50
44855;DHT22;30591;48.228;16.398;2023-03-18T17:05:15;11.10;56.90
44855;DHT22;30591;48.228;16.398;2023-03-18T17:07:43;10.90;57.30
44855;DHT22;30591;48.228;16.398;2023-03-18T17:10:12;10.80;56.90
44855;DHT22;30591;48.228;16.398;2023-03-18T17:12:58;10.80;57.50
44855;DHT22;30591;48.228;16.398;2023-03-18T17:15:29;10.60;57.30
44855;DHT22;30591;48.228;16.398;2023-03-18T17:17:59;10.50;58.20
44855;DHT22;30591;48.228;16.398;2023-03-18T17:20:28;10.30;59.20
44855;DHT22;30591;48.228;16.398;2023-03-18T17:22:58;10.20;58.90
44855;DHT22;30591;48.228;16.398;2023-03-18T17:25:27;10.00;58.80
44855;DHT22;30591;48.228;16.398;2023-03-18T17:27:59;9.80;61.10
44855;DHT22;30591;48.228;16.398;2023-03-18T17:30:35;9.60;60.50
44855;DHT22;30591;48.228;16.398;2023-03-18T17:33:20;9.50;61.00
44855;DHT22;30591;48.228;16.398;2023-03-18T17:35:49;9.40;60.20
44855;DHT22;30591;48.228;16.398;2023-03-18T17:38:16;9.30;61.20
44855;DHT22;30591;48.228;16.398;2023-03-18T17:40:45;9.10;61.00
44855;DHT22;30591;48.228;16.398;2023-03-18T17:43:26;9.10;61.40
44855;DHT22;30591;48.228;16.398;2023-03-18T17:45:56;9.00;60.40
44855;DHT22;30591;48.228;16.398;2023-03-18T17:48:26;9.00;61.20
44855;DHT22;30591;48.228;16.398;2023-03-18T17:51:05;9.00;63.20
44855;DHT22;30591;48.228;16.398;2023-03-18T17:53:38;8.90;61.00
44855;DHT22;30591;48.228;16.398;2023-03-18T17:56:10;8.90;61.60